createdAt,value
2023-03-24T16:26:48.187Z,13.18
2023-03-24T16:31:48.233Z,13.04
2023-03-24T16:36:47.986Z,13.43
2023-03-24T16:41:47.921Z,12.89
2023-03-24T16:46:47.873Z,12.63
2023-03-24T16:51:47.812Z,12.46
2023-03-24T16:56:47.770Z,12.87
2023-03-24T17:01:47.718Z,12.81
2023-03-24T17:06:47.581Z,12.64
2023-03-24T17:11:47.514Z,12.39
2023-03-24T17:16:47.450Z,12.52
2023-03-24T17:21:47.382Z,12.44
2023-03-24T17:26:47.317Z,12.70
2023-03-24T17:31:47.305Z,13.02
2023-03-24T17:36:47.182Z,12.84
2023-03-24T17:41:47.150Z,12.93
2023-03-24T17:46:47.096Z,12.67
2023-03-24T17:51:46.980Z,12.64
2023-03-24T17:56:46.928Z,13.20
2023-03-24T18:01:46.837Z,12.93
2023-03-24T18:06:46.775Z,12.97
2023-03-24T18:11:47.783Z,13.07
2023-03-24T18:16:46.660Z,12.89
2023-03-24T18:21:46.571Z,12.79
2023-03-24T18:26:47.370Z,12.51
2023-03-24T18:31:46.459Z,12.38
2023-03-24T18:36:46.369Z,12.31
2023-03-24T18:41:46.303Z,12.31
2023-03-24T18:46:46.237Z,12.31
2023-03-24T18:51:46.177Z,12.33
2023-03-24T18:56:46.185Z,12.69
2023-03-24T19:01:46.359Z,12.70
2023-03-24T19:06:46.116Z,12.42
2023-03-24T19:11:46.033Z,12.19
2023-03-24T19:16:45.853Z,11.89
2023-03-24T19:21:45.795Z,11.75
2023-03-24T19:26:45.761Z,11.67
2023-03-24T19:31:45.641Z,11.56
2023-03-24T19:36:47.666Z,11.50
2023-03-24T19:41:45.576Z,11.57
2023-03-24T19:46:45.510Z,11.46
2023-03-24T19:51:45.376Z,11.38
2023-03-24T19:56:45.327Z,11.29
2023-03-24T20:01:45.279Z,11.31
2023-03-24T20:06:45.189Z,11.19
2023-03-24T20:11:45.155Z,11.25
2023-03-24T20:16:45.088Z,11.35
2023-03-24T20:21:44.993Z,11.41
2023-03-24T20:26:46.506Z,11.43
2023-03-24T20:31:44.917Z,11.61
2023-03-24T20:36:44.784Z,11.54
2023-03-24T20:41:44.710Z,11.80
2023-03-24T20:46:45.981Z,11.99
2023-03-24T20:51:44.589Z,11.85
2023-03-24T20:56:44.570Z,11.86
2023-03-24T21:01:44.452Z,11.71
2023-03-24T21:06:44.390Z,11.62
2023-03-24T21:11:44.307Z,11.65
2023-03-24T21:16:44.296Z,11.57
2023-03-24T21:21:44.189Z,11.70
2023-03-24T21:26:44.116Z,11.72
2023-03-24T21:31:44.049Z,11.62
2023-03-24T21:36:43.984Z,11.59
2023-03-24T21:41:43.911Z,11.50
2023-03-24T21:46:43.852Z,11.38
2023-03-24T21:51:43.821Z,11.19
2023-03-24T21:56:43.765Z,11.24
2023-03-24T22:01:43.681Z,11.09
2023-03-24T22:06:43.583Z,11.16
2023-03-24T22:11:43.513Z,11.41
2023-03-24T22:16:43.513Z,11.72
2023-03-24T22:21:43.386Z,11.80
2023-03-24T22:26:43.319Z,11.85
2023-03-24T22:31:43.259Z,12.41
2023-03-24T22:36:43.192Z,12.77
2023-03-24T22:41:43.157Z,12.89
2023-03-24T22:46:43.147Z,12.97
2023-03-24T22:51:43.054Z,13.06
2023-03-24T22:56:42.990Z,13.18
2023-03-24T23:01:42.951Z,13.11
2023-03-24T23:06:42.831Z,13.06
2023-03-24T23:11:42.761Z,12.82
2023-03-24T23:16:42.763Z,12.81
2023-03-24T23:21:42.635Z,12.78
2023-03-24T23:26:42.565Z,12.62
2023-03-24T23:31:42.526Z,12.64
2023-03-24T23:36:42.420Z,12.64
2023-03-24T23:41:42.357Z,12.33
2023-03-24T23:46:42.298Z,12.20
2023-03-24T23:51:42.223Z,12.16
2023-03-24T23:56:42.214Z,12.19
